sensor_id;sensor_type;location;lat;lon;timestamp;temperature;humidity
51486;DHT22;37565;51.352;6.412;2022-11-12T00:01:09;18.80;99.90
51486;DHT22;37565;51.352;6.412;2022-11-12T00:03:37;18.80;99.90
51486;DHT22;37565;51.352;6.412;2022-11-12T00:06:05;18.80;99.90
51486;DHT22;37565;51.352;6.412;2022-11-12T00:08:33;18.80;99.90
51486;DHT22;37565;51.352;6.412;2022-11-12T00:11:01;18.70;99.90
51486;DHT22;37565;51.352;6.412;2022-11-12T00:13:31;18.70;99.90
51486;DHT22;37565;51.352;6.412;2022-11-12T00:15:59;18.70;99.90
51486;DHT22;37565;51.352;6.412;2022-11-12T00:18:27;18.70;99.90
51486;DHT22;37565;51.352;6.412;2022-11-12T00:20:55;18.60;99.90
51486;DHT22;37565;51.352;6.412;2022-11-12T00:23:23;18.60;99.90
51486;DHT22;37565;51.352;6.412;2022-11-12T00:25:57;18.60;99.90
51486;DHT22;37565;51.352;6.412;2022-11-12T00:28:25;18.60;99.90
51486;DHT22;37565;51.352;6.412;2022-11-12T00:31:06;18.50;99.90
51486;DHT22;37565;51.352;6.412;2022-11-12T00:33:33;18.50;99.90
51486;DHT22;37565;51.352;6.412;2022-11-12T00:36:01;18.60;99.90
51486;DHT22;37565;51.352;6.412;2022-11-12T00:38:30;18.70;99.90
51486;DHT22;37565;51.352;6.412;2022-11-12T00:40:58;18.60;99.90
51486;DHT22;37565;51.352;6.412;2022-11-12T00:43:26;18.60;99.90
51486;DHT22;37565;51.352;6.412;2022-11-12T00:45:54;18.60;99.90
51486;DHT22;37565;51.352;6.412;2022-11-12T00:48:23;18.60;99.90
51486;DHT22;37565;51.352;6.412;2022-11-12T00:50:59;18.60;99.90
51486;DHT22;37565;51.352;6.412;2022-11-12T00:53:27;18.70;99.90
51486;DHT22;37565;51.352;6.412;2022-11-12T00:55:59;18.70;99.90
51486;DHT22;37565;51.352;6.412;2022-11-12T00:58:28;18.70;99.90
51486;DHT22;37565;51.352;6.412;2022-11-12T01:00:56;18.70;99.90
51486;DHT22;37565;51.352;6.412;2022-11-12T01:03:27;18.70;99.90
51486;DHT22;37565;51.352;6.412;2022-11-12T01:06:01;18.70;99.90
51486;DHT22;37565;51.352;6.412;2022-11-12T01:08:29;18.70;99.90
51486;DHT22;37565;51.352;6.412;2022-11-12T01:11:04;18.70;99.90
51486;DHT22;37565;51.352;6.412;2022-11-12T01:13:33;18.60;99.90
51486;DHT22;37565;51.352;6.412;2022-11-12T01:16:08;18.60;99.90
51486;DHT22;37565;51.352;6.412;2022-11-12T01:18:38;18.60;99.90
51486;DHT22;37565;51.352;6.412;2022-11-12T01:21:06;18.50;99.90
51486;DHT22;37565;51.352;6.412;2022-11-12T01:23:36;18.50;99.90
51486;DHT22;37565;51.352;6.412;2022-11-12T01:26:05;18.50;99.90
51486;DHT22;37565;51.352;6.412;2022-11-12T01:28:33;18.50;99.90
51486;DHT22;37565;51.352;6.412;2022-11-12T01:31:09;18.50;99.90
51486;DHT22;37565;51.352;6.412;2022-11-12T01:33:38;18.50;99.90
51486;DHT22;37565;51.352;6.412;2022-11-12T01:36:07;18.50;99.90
51486;DHT22;37565;51.352;6.412;2022-11-12T01:38:36;18.40;99.90
51486;DHT22;37565;51.352;6.412;2022-11-12T01:41:05;18.50;99.90
51486;DHT22;37565;51.352;6.412;2022-11-12T01:43:33;18.50;99.90
51486;DHT22;37565;51.352;6.412;2022-11-12T01:46:06;18.40;99.90
51486;DHT22;37565;51.352;6.412;2022-11-12T01:48:41;18.40;99.90
51486;DHT22;37565;51.352;6.412;2022-11-12T01:51:12;18.40;99.90
51486;DHT22;37565;51.352;6.412;2022-11-12T01:53:43;18.50;99.90
51486;DHT22;37565;51.352;6.412;2022-11-12T01:56:12;18.40;99.90
51486;DHT22;37565;51.352;6.412;2022-11-12T01:58:41;18.40;99.90
51486;DHT22;37565;51.352;6.412;2022-11-12T02:01:10;18.40;99.90
51486;DHT22;37565;51.352;6.412;2022-11-12T02:03:40;18.50;99.90
51486;DHT22;37565;51.352;6.412;2022-11-12T02:06:10;18.50;99.90
51486;DHT22;37565;51.352;6.412;2022-11-12T02:08:40;18.50;99.90
51486;DHT22;37565;51.352;6.412;2022-11-12T02:11:12;18.50;99.90
51486;DHT22;37565;51.352;6.412;2022-11-12T02:13:40;18.50;99.90
51486;DHT22;37565;51.352;6.412;2022-11-12T02:16:24;18.50;99.90
51486;DHT22;37565;51.352;6.412;2022-11-12T02:18:53;18.60;99.90
51486;DHT22;37565;51.352;6.412;2022-11-12T02:21:23;18.50;99.90
51486;DHT22;37565;51.352;6.412;2022-11-12T02:24:02;18.50;99.90
51486;DHT22;37565;51.352;6.412;2022-11-12T02:26:33;18.50;99.90
51486;DHT22;37565;51.352;6.412;2022-11-12T02:29:02;18.50;99.90
51486;DHT22;37565;51.352;6.412;2022-11-12T02:31:30;18.40;99.90
51486;DHT22;37565;51.352;6.412;2022-11-12T02:33:58;18.40;99.90
51486;DHT22;37565;51.352;6.412;2022-11-12T02:36:28;18.40;99.90
51486;DHT22;37565;51.352;6.412;2022-11-12T02:38:56;18.40;99.90
51486;DHT22;37565;51.352;6.412;2022-11-12T02:41:24;18.40;99.90
51486;DHT22;37565;51.352;6.412;2022-11-12T02:43:52;18.40;99.90
51486;DHT22;37565;51.352;6.412;2022-11-12T02:46:20;18.40;99.90
51486;DHT22;37565;51.352;6.412;2022-11-12T02:48:48;18.40;99.90
51486;DHT22;37565;51.352;6.412;2022-11-12T02:51:16;18.40;99.90
51486;DHT22;37565;51.352;6.412;2022-11-12T02:53:45;18.40;99.90
51486;DHT22;37565;51.352;6.412;2022-11-12T02:56:13;18.40;99.90
51486;DHT22;37565;51.352;6.412;2022-11-12T02:58:41;18.40;99.90
51486;DHT22;37565;51.352;6.412;2022-11-12T03:01:09;18.40;99.90
51486;DHT22;37565;51.352;6.412;2022-11-12T03:03:37;18.30;99.90
51486;DHT22;37565;51.352;6.412;2022-11-12T03:06:05;18.40;99.90
51486;DHT22;37565;51.352;6.412;2022-11-12T03:08:33;18.40;99.90
51486;DHT22;37565;51.352;6.412;2022-11-12T03:11:07;18.40;99.90
51486;DHT22;37565;51.352;6.412;2022-11-12T03:13:35;18.40;99.90
51486;DHT22;37565;51.352;6.412;2022-11-12T03:16:03;18.40;99.90
51486;DHT22;37565;51.352;6.412;2022-11-12T03:18:32;18.30;99.90
51486;DHT22;37565;51.352;6.412;2022-11-12T03:21:00;18.30;99.90
51486;DHT22;37565;51.352;6.412;2022-11-12T03:23:28;18.40;99.90
51486;DHT22;37565;51.352;6.412;2022-11-12T03:25:56;18.30;99.90
51486;DHT22;37565;51.352;6.412;2022-11-12T03:28:25;18.40;99.90
51486;DHT22;37565;51.352;6.412;2022-11-12T03:30:56;18.40;99.90
51486;DHT22;37565;51.352;6.412;2022-11-12T03:33:25;18.40;99.90
51486;DHT22;37565;51.352;6.412;2022-11-12T03:35:53;18.30;99.90
51486;DHT22;37565;51.352;6.412;2022-11-12T03:38:21;18.30;99.90
51486;DHT22;37565;51.352;6.412;2022-11-12T03:40:49;18.30;99.90
51486;DHT22;37565;51.352;6.412;2022-11-12T03:43:17;18.30;99.90
51486;DHT22;37565;51.352;6.412;2022-11-12T03:45:46;18.30;99.90
51486;DHT22;37565;51.352;6.412;2022-11-12T03:48:14;18.30;99.90
51486;DHT22;37565;51.352;6.412;2022-11-12T03:50:42;18.20;99.90
51486;DHT22;37565;51.352;6.412;2022-11-12T03:53:10;18.30;99.90
51486;DHT22;37565;51.352;6.412;2022-11-12T03:55:38;18.20;99.90
51486;DHT22;37565;51.352;6.412;2022-11-12T03:58:05;18.30;99.90
51486;DHT22;37565;51.352;6.412;2022-11-12T04:00:33;18.30;99.90
51486;DHT22;37565;51.352;6.412;2022-11-12T04:03:03;18.30;99.90
51486;DHT22;37565;51.352;6.412;2022-11-12T04:05:30;18.30;99.90
51486;DHT22;37565;51.352;6.412;2022-11-12T04:08:18;18.30;99.90
51486;DHT22;37565;51.352;6.412;2022-11-12T04:11:07;18.20;99.90
51486;DHT22;37565;51.352;6.412;2022-11-12T04:13:35;18.30;99.90
51486;DHT22;37565;51.352;6.412;2022-11-12T04:16:06;18.20;99.90
51486;DHT22;37565;51.352;6.412;2022-11-12T04:18:55;18.20;99.90
51486;DHT22;37565;51.352;6.412;2022-11-12T04:21:42;18.20;99.90
51486;DHT22;37565;51.352;6.412;2022-11-12T04:24:25;18.20;99.90
51486;DHT22;37565;51.352;6.412;2022-11-12T04:27:13;18.30;99.90
51486;DHT22;37565;51.352;6.412;2022-11-12T04:29:42;18.20;99.90
51486;DHT22;37565;51.352;6.412;2022-11-12T04:32:28;18.30;99.90
51486;DHT22;37565;51.352;6.412;2022-11-12T04:34:58;18.30;99.90
51486;DHT22;37565;51.352;6.412;2022-11-12T04:37:27;18.30;99.90
51486;DHT22;37565;51.352;6.412;2022-11-12T04:40:10;18.30;99.90
51486;DHT22;37565;51.352;6.412;2022-11-12T04:42:52;18.30;99.90
51486;DHT22;37565;51.352;6.412;2022-11-12T04:45:37;18.20;99.90
51486;DHT22;37565;51.352;6.412;2022-11-12T04:48:06;18.20;99.90
51486;DHT22;37565;51.352;6.412;2022-11-12T04:50:35;18.20;99.90
51486;DHT22;37565;51.352;6.412;2022-11-12T04:53:04;18.20;99.90
51486;DHT22;37565;51.352;6.412;2022-11-12T04:55:31;18.20;99.90
51486;DHT22;37565;51.352;6.412;2022-11-12T04:57:59;18.20;99.90
51486;DHT22;37565;51.352;6.412;2022-11-12T05:00:27;18.30;99.90
51486;DHT22;37565;51.352;6.412;2022-11-12T05:02:55;18.30;99.90
51486;DHT22;37565;51.352;6.412;2022-11-12T05:05:23;18.30;99.90
51486;DHT22;37565;51.352;6.412;2022-11-12T05:08:00;18.30;99.90
51486;DHT22;37565;51.352;6.412;2022-11-12T05:10:29;18.30;99.90
51486;DHT22;37565;51.352;6.412;2022-11-12T05:12:57;18.30;99.90
51486;DHT22;37565;51.352;6.412;2022-11-12T05:15:25;18.20;99.90
51486;DHT22;37565;51.352;6.412;2022-11-12T05:17:53;18.20;99.90
51486;DHT22;37565;51.352;6.412;2022-11-12T05:20:21;18.10;99.90
51486;DHT22;37565;51.352;6.412;2022-11-12T05:22:49;18.20;99.90
51486;DHT22;37565;51.352;6.412;2022-11-12T05:25:33;18.20;99.90
51486;DHT22;37565;51.352;6.412;2022-11-12T05:28:01;18.20;99.90
51486;DHT22;37565;51.352;6.412;2022-11-12T05:30:33;18.20;99.90
51486;DHT22;37565;51.352;6.412;2022-11-12T05:33:01;18.10;99.90
51486;DHT22;37565;51.352;6.412;2022-11-12T05:35:29;18.10;99.90
51486;DHT22;37565;51.352;6.412;2022-11-12T05:37:56;18.10;99.90
51486;DHT22;37565;51.352;6.412;2022-11-12T05:40:24;18.20;99.90
51486;DHT22;37565;51.352;6.412;2022-11-12T05:42:54;18.10;99.90
51486;DHT22;37565;51.352;6.412;2022-11-12T05:45:21;18.10;99.90
51486;DHT22;37565;51.352;6.412;2022-11-12T05:47:49;18.10;99.90
51486;DHT22;37565;51.352;6.412;2022-11-12T05:50:17;18.10;99.90
51486;DHT22;37565;51.352;6.412;2022-11-12T05:52:45;18.10;99.90
51486;DHT22;37565;51.352;6.412;2022-11-12T05:55:13;18.10;99.90
51486;DHT22;37565;51.352;6.412;2022-11-12T05:57:41;18.20;99.90
51486;DHT22;37565;51.352;6.412;2022-11-12T06:00:11;18.20;99.90
51486;DHT22;37565;51.352;6.412;2022-11-12T06:02:39;18.20;99.90
51486;DHT22;37565;51.352;6.412;2022-11-12T06:05:09;18.20;99.90
51486;DHT22;37565;51.352;6.412;2022-11-12T06:07:37;18.20;99.90
51486;DHT22;37565;51.352;6.412;2022-11-12T06:10:05;18.20;99.90
51486;DHT22;37565;51.352;6.412;2022-11-12T06:12:33;18.20;99.90
51486;DHT22;37565;51.352;6.412;2022-11-12T06:15:01;18.20;99.90
51486;DHT22;37565;51.352;6.412;2022-11-12T06:17:31;18.20;99.90
51486;DHT22;37565;51.352;6.412;2022-11-12T06:19:58;18.20;99.90
51486;DHT22;37565;51.352;6.412;2022-11-12T06:22:26;18.20;99.90
51486;DHT22;37565;51.352;6.412;2022-11-12T06:24:54;18.20;99.90
51486;DHT22;37565;51.352;6.412;2022-11-12T06:27:22;18.10;99.90
51486;DHT22;37565;51.352;6.412;2022-11-12T06:29:50;18.10;99.90
51486;DHT22;37565;51.352;6.412;2022-11-12T06:32:18;18.00;99.90
51486;DHT22;37565;51.352;6.412;2022-11-12T06:34:48;18.10;99.90
51486;DHT22;37565;51.352;6.412;2022-11-12T06:37:18;18.00;99.90
51486;DHT22;37565;51.352;6.412;2022-11-12T06:39:47;18.00;99.90
51486;DHT22;37565;51.352;6.412;2022-11-12T06:42:15;18.10;99.90
51486;DHT22;37565;51.352;6.412;2022-11-12T06:44:43;18.10;99.90
51486;DHT22;37565;51.352;6.412;2022-11-12T06:47:11;18.00;99.90
51486;DHT22;37565;51.352;6.412;2022-11-12T06:49:39;18.10;99.90
51486;DHT22;37565;51.352;6.412;2022-11-12T06:52:08;18.10;99.90
51486;DHT22;37565;51.352;6.412;2022-11-12T06:54:42;18.10;99.90
51486;DHT22;37565;51.352;6.412;2022-11-12T06:57:10;18.10;99.90
51486;DHT22;37565;51.352;6.412;2022-11-12T06:59:38;18.10;99.90
51486;DHT22;37565;51.352;6.412;2022-11-12T07:02:06;18.10;99.90
51486;DHT22;37565;51.352;6.412;2022-11-12T07:04:34;18.10;99.90
51486;DHT22;37565;51.352;6.412;2022-11-12T07:07:02;18.20;99.90
51486;DHT22;37565;51.352;6.412;2022-11-12T07:09:37;18.10;99.90
51486;DHT22;37565;51.352;6.412;2022-11-12T07:12:05;18.10;99.90
51486;DHT22;37565;51.352;6.412;2022-11-12T07:14:33;18.10;99.90
51486;DHT22;37565;51.352;6.412;2022-11-12T07:17:01;18.10;99.90
51486;DHT22;37565;51.352;6.412;2022-11-12T07:19:29;18.10;99.90
51486;DHT22;37565;51.352;6.412;2022-11-12T07:21:57;18.10;99.90
51486;DHT22;37565;51.352;6.412;2022-11-12T07:24:25;18.10;99.90
51486;DHT22;37565;51.352;6.412;2022-11-12T07:26:54;18.00;99.90
51486;DHT22;37565;51.352;6.412;2022-11-12T07:29:22;17.90;99.90
51486;DHT22;37565;51.352;6.412;2022-11-12T07:32:10;17.90;99.90
51486;DHT22;37565;51.352;6.412;2022-11-12T07:34:38;18.00;99.90
51486;DHT22;37565;51.352;6.412;2022-11-12T07:37:06;18.10;99.90
51486;DHT22;37565;51.352;6.412;2022-11-12T07:39:34;18.20;99.90
51486;DHT22;37565;51.352;6.412;2022-11-12T07:42:04;18.20;99.90
51486;DHT22;37565;51.352;6.412;2022-11-12T07:44:31;18.20;99.90
51486;DHT22;37565;51.352;6.412;2022-11-12T07:47:00;18.20;99.90
51486;DHT22;37565;51.352;6.412;2022-11-12T07:49:28;18.30;99.90
51486;DHT22;37565;51.352;6.412;2022-11-12T07:51:55;18.30;99.90
51486;DHT22;37565;51.352;6.412;2022-11-12T07:54:23;18.30;99.90
51486;DHT22;37565;51.352;6.412;2022-11-12T07:56:51;18.30;99.90
51486;DHT22;37565;51.352;6.412;2022-11-12T07:59:21;18.30;99.90
51486;DHT22;37565;51.352;6.412;2022-11-12T08:01:48;18.30;99.90
51486;DHT22;37565;51.352;6.412;2022-11-12T08:04:16;18.40;99.90
51486;DHT22;37565;51.352;6.412;2022-11-12T08:06:44;18.40;99.90
51486;DHT22;37565;51.352;6.412;2022-11-12T08:09:13;18.40;99.90
51486;DHT22;37565;51.352;6.412;2022-11-12T08:11:40;18.40;99.90
51486;DHT22;37565;51.352;6.412;2022-11-12T08:14:08;18.30;99.90
51486;DHT22;37565;51.352;6.412;2022-11-12T08:16:38;18.30;99.90
51486;DHT22;37565;51.352;6.412;2022-11-12T08:19:06;18.30;99.90
51486;DHT22;37565;51.352;6.412;2022-11-12T08:21:33;18.30;99.90
51486;DHT22;37565;51.352;6.412;2022-11-12T08:24:02;18.30;99.90
51486;DHT22;37565;51.352;6.412;2022-11-12T08:26:30;18.30;99.90
51486;DHT22;37565;51.352;6.412;2022-11-12T08:28:58;18.30;99.90
51486;DHT22;37565;51.352;6.412;2022-11-12T08:31:33;18.30;99.90
51486;DHT22;37565;51.352;6.412;2022-11-12T08:34:03;18.30;99.90
51486;DHT22;37565;51.352;6.412;2022-11-12T08:36:38;18.30;99.90
51486;DHT22;37565;51.352;6.412;2022-11-12T08:39:07;18.30;99.90
51486;DHT22;37565;51.352;6.412;2022-11-12T08:41:35;18.30;99.90
51486;DHT22;37565;51.352;6.412;2022-11-12T08:44:03;18.30;99.90
51486;DHT22;37565;51.352;6.412;2022-11-12T08:46:34;18.30;99.90
51486;DHT22;37565;51.352;6.412;2022-11-12T08:49:03;18.30;99.90
51486;DHT22;37565;51.352;6.412;2022-11-12T08:51:31;18.40;99.90
51486;DHT22;37565;51.352;6.412;2022-11-12T08:53:59;18.30;99.90
51486;DHT22;37565;51.352;6.412;2022-11-12T08:56:27;18.30;99.90
51486;DHT22;37565;51.352;6.412;2022-11-12T08:58:55;18.30;99.90
51486;DHT22;37565;51.352;6.412;2022-11-12T09:01:23;18.30;99.90
51486;DHT22;37565;51.352;6.412;2022-11-12T09:03:51;18.30;99.90
51486;DHT22;37565;51.352;6.412;2022-11-12T09:06:20;18.30;99.90
51486;DHT22;37565;51.352;6.412;2022-11-12T09:08:49;18.30;99.90
51486;DHT22;37565;51.352;6.412;2022-11-12T09:11:16;18.30;99.90
51486;DHT22;37565;51.352;6.412;2022-11-12T09:13:45;18.40;99.90
51486;DHT22;37565;51.352;6.412;2022-11-12T09:16:13;18.30;99.90
51486;DHT22;37565;51.352;6.412;2022-11-12T09:18:41;18.30;99.90
51486;DHT22;37565;51.352;6.412;2022-11-12T09:21:10;18.30;99.90
51486;DHT22;37565;51.352;6.412;2022-11-12T09:23:39;18.30;99.90
51486;DHT22;37565;51.352;6.412;2022-11-12T09:26:07;18.30;99.90
51486;DHT22;37565;51.352;6.412;2022-11-12T09:28:35;18.30;99.90
51486;DHT22;37565;51.352;6.412;2022-11-12T09:31:05;18.30;99.90
51486;DHT22;37565;51.352;6.412;2022-11-12T09:33:33;18.30;99.90
51486;DHT22;37565;51.352;6.412;2022-11-12T09:36:02;18.30;99.90
51486;DHT22;37565;51.352;6.412;2022-11-12T09:38:31;18.30;99.90
51486;DHT22;37565;51.352;6.412;2022-11-12T09:41:09;18.30;99.90
51486;DHT22;37565;51.352;6.412;2022-11-12T09:43:44;18.30;99.90
51486;DHT22;37565;51.352;6.412;2022-11-12T09:46:24;18.30;99.90
51486;DHT22;37565;51.352;6.412;2022-11-12T09:48:59;18.30;99.90
51486;DHT22;37565;51.352;6.412;2022-11-12T09:51:32;18.30;99.90
51486;DHT22;37565;51.352;6.412;2022-11-12T09:54:03;18.30;99.90
51486;DHT22;37565;51.352;6.412;2022-11-12T09:56:35;18.30;99.90
51486;DHT22;37565;51.352;6.412;2022-11-12T09:59:04;18.20;99.90
51486;DHT22;37565;51.352;6.412;2022-11-12T10:01:42;18.10;99.90
51486;DHT22;37565;51.352;6.412;2022-11-12T10:04:43;18.10;99.90
51486;DHT22;37565;51.352;6.412;2022-11-12T10:07:18;18.10;99.90
51486;DHT22;37565;51.352;6.412;2022-11-12T10:10:00;18.10;99.90
51486;DHT22;37565;51.352;6.412;2022-11-12T10:12:41;18.10;99.90
51486;DHT22;37565;51.352;6.412;2022-11-12T10:15:34;18.00;99.90
51486;DHT22;37565;51.352;6.412;2022-11-12T10:18:40;18.00;99.90
51486;DHT22;37565;51.352;6.412;2022-11-12T10:21:15;18.00;99.90
51486;DHT22;37565;51.352;6.412;2022-11-12T10:23:46;18.00;99.90
51486;DHT22;37565;51.352;6.412;2022-11-12T10:26:18;18.00;99.90
51486;DHT22;37565;51.352;6.412;2022-11-12T10:28:49;18.00;99.90
51486;DHT22;37565;51.352;6.412;2022-11-12T10:31:20;17.90;99.90
51486;DHT22;37565;51.352;6.412;2022-11-12T10:33:48;17.80;99.90
51486;DHT22;37565;51.352;6.412;2022-11-12T10:36:25;17.80;99.90
51486;DHT22;37565;51.352;6.412;2022-11-12T10:38:54;17.70;99.90
51486;DHT22;37565;51.352;6.412;2022-11-12T10:41:25;17.70;99.90
51486;DHT22;37565;51.352;6.412;2022-11-12T10:43:56;17.70;99.90
51486;DHT22;37565;51.352;6.412;2022-11-12T10:46:26;17.60;99.90
51486;DHT22;37565;51.352;6.412;2022-11-12T10:48:58;17.60;99.80
51486;DHT22;37565;51.352;6.412;2022-11-12T10:51:32;17.60;99.50
51486;DHT22;37565;51.352;6.412;2022-11-12T10:54:19;17.60;99.30
51486;DHT22;37565;51.352;6.412;2022-11-12T10:56:47;17.70;99.20
51486;DHT22;37565;51.352;6.412;2022-11-12T10:59:23;17.70;99.00
51486;DHT22;37565;51.352;6.412;2022-11-12T11:01:56;17.70;98.90
51486;DHT22;37565;51.352;6.412;2022-11-12T11:04:28;17.70;98.80
51486;DHT22;37565;51.352;6.412;2022-11-12T11:07:01;17.60;98.50
51486;DHT22;37565;51.352;6.412;2022-11-12T11:09:30;17.60;98.40
51486;DHT22;37565;51.352;6.412;2022-11-12T11:11:58;17.60;98.20
51486;DHT22;37565;51.352;6.412;2022-11-12T11:14:32;17.60;98.00
51486;DHT22;37565;51.352;6.412;2022-11-12T11:17:03;17.60;98.30
51486;DHT22;37565;51.352;6.412;2022-11-12T11:19:37;17.70;97.90
51486;DHT22;37565;51.352;6.412;2022-11-12T11:22:24;17.80;97.90
51486;DHT22;37565;51.352;6.412;2022-11-12T11:25:03;17.90;98.40
51486;DHT22;37565;51.352;6.412;2022-11-12T11:27:40;17.90;98.60
51486;DHT22;37565;51.352;6.412;2022-11-12T11:30:12;17.90;98.90
51486;DHT22;37565;51.352;6.412;2022-11-12T11:33:03;18.00;99.30
51486;DHT22;37565;51.352;6.412;2022-11-12T11:35:56;18.00;99.80
51486;DHT22;37565;51.352;6.412;2022-11-12T11:38:33;18.00;99.90
51486;DHT22;37565;51.352;6.412;2022-11-12T11:41:29;18.10;99.90
51486;DHT22;37565;51.352;6.412;2022-11-12T11:44:06;18.10;99.90
51486;DHT22;37565;51.352;6.412;2022-11-12T11:46:53;18.10;99.90
51486;DHT22;37565;51.352;6.412;2022-11-12T11:52:43;18.20;99.90
51486;DHT22;37565;51.352;6.412;2022-11-12T11:55:33;18.20;99.90
51486;DHT22;37565;51.352;6.412;2022-11-12T11:58:11;18.30;99.90
51486;DHT22;37565;51.352;6.412;2022-11-12T12:00:46;18.30;99.90
51486;DHT22;37565;51.352;6.412;2022-11-12T12:03:19;18.30;99.90
51486;DHT22;37565;51.352;6.412;2022-11-12T12:06:06;18.30;99.90
51486;DHT22;37565;51.352;6.412;2022-11-12T12:08:57;18.30;99.90
51486;DHT22;37565;51.352;6.412;2022-11-12T12:11:33;18.30;99.90
51486;DHT22;37565;51.352;6.412;2022-11-12T12:14:22;18.30;99.90
51486;DHT22;37565;51.352;6.412;2022-11-12T12:16:58;18.40;99.90
51486;DHT22;37565;51.352;6.412;2022-11-12T12:19:50;18.30;99.90
51486;DHT22;37565;51.352;6.412;2022-11-12T12:22:31;18.40;99.90
51486;DHT22;37565;51.352;6.412;2022-11-12T12:25:08;18.40;99.90
51486;DHT22;37565;51.352;6.412;2022-11-12T12:27:46;18.40;99.90
51486;DHT22;37565;51.352;6.412;2022-11-12T12:30:19;18.40;99.90
51486;DHT22;37565;51.352;6.412;2022-11-12T12:32:53;18.40;99.90
51486;DHT22;37565;51.352;6.412;2022-11-12T12:35:27;18.40;99.90
51486;DHT22;37565;51.352;6.412;2022-11-12T12:38:05;18.40;99.90
51486;DHT22;37565;51.352;6.412;2022-11-12T12:40:42;18.40;99.90
51486;DHT22;37565;51.352;6.412;2022-11-12T12:43:16;18.40;99.90
51486;DHT22;37565;51.352;6.412;2022-11-12T12:45:47;18.40;99.90
51486;DHT22;37565;51.352;6.412;2022-11-12T12:48:18;18.40;99.90
51486;DHT22;37565;51.352;6.412;2022-11-12T12:50:48;18.40;99.90
51486;DHT22;37565;51.352;6.412;2022-11-12T12:53:31;18.50;99.90
51486;DHT22;37565;51.352;6.412;2022-11-12T12:56:01;18.40;99.90
51486;DHT22;37565;51.352;6.412;2022-11-12T12:58:31;18.40;99.90
51486;DHT22;37565;51.352;6.412;2022-11-12T13:01:02;18.40;99.90
51486;DHT22;37565;51.352;6.412;2022-11-12T13:03:54;18.40;99.90
51486;DHT22;37565;51.352;6.412;2022-11-12T13:06:27;18.40;99.90
51486;DHT22;37565;51.352;6.412;2022-11-12T13:08:59;18.40;99.90
51486;DHT22;37565;51.352;6.412;2022-11-12T13:11:48;18.40;99.90
51486;DHT22;37565;51.352;6.412;2022-11-12T13:17:47;18.40;99.90
51486;DHT22;37565;51.352;6.412;2022-11-12T13:20:38;18.40;99.90
51486;DHT22;37565;51.352;6.412;2022-11-12T13:23:41;18.40;99.90
51486;DHT22;37565;51.352;6.412;2022-11-12T13:26:51;18.30;99.90
51486;DHT22;37565;51.352;6.412;2022-11-12T13:32:32;18.30;99.90
51486;DHT22;37565;51.352;6.412;2022-11-12T13:35:26;18.30;99.90
51486;DHT22;37565;51.352;6.412;2022-11-12T13:37:58;18.30;99.90
51486;DHT22;37565;51.352;6.412;2022-11-12T13:40:49;18.30;99.90
51486;DHT22;37565;51.352;6.412;2022-11-12T13:43:32;18.40;99.90
51486;DHT22;37565;51.352;6.412;2022-11-12T13:46:25;18.40;99.90
51486;DHT22;37565;51.352;6.412;2022-11-12T13:48:57;18.40;99.90
51486;DHT22;37565;51.352;6.412;2022-11-12T13:51:33;18.50;99.90
51486;DHT22;37565;51.352;6.412;2022-11-12T13:54:26;18.40;99.90
51486;DHT22;37565;51.352;6.412;2022-11-12T13:56:54;18.40;99.90
51486;DHT22;37565;51.352;6.412;2022-11-12T13:59:24;18.30;99.90
51486;DHT22;37565;51.352;6.412;2022-11-12T14:01:53;18.30;99.90
51486;DHT22;37565;51.352;6.412;2022-11-12T14:04:22;18.30;99.90
51486;DHT22;37565;51.352;6.412;2022-11-12T14:06:52;18.30;99.90
51486;DHT22;37565;51.352;6.412;2022-11-12T14:09:42;18.30;99.90
51486;DHT22;37565;51.352;6.412;2022-11-12T14:12:33;18.30;99.90
51486;DHT22;37565;51.352;6.412;2022-11-12T14:15:15;18.30;99.90
51486;DHT22;37565;51.352;6.412;2022-11-12T14:17:54;18.30;99.90
51486;DHT22;37565;51.352;6.412;2022-11-12T14:20:24;18.30;99.90
51486;DHT22;37565;51.352;6.412;2022-11-12T14:22:56;18.30;99.90
51486;DHT22;37565;51.352;6.412;2022-11-12T14:25:30;18.30;99.90
51486;DHT22;37565;51.352;6.412;2022-11-12T14:27:58;18.30;99.90
51486;DHT22;37565;51.352;6.412;2022-11-12T14:30:28;18.30;99.90
51486;DHT22;37565;51.352;6.412;2022-11-12T14:32:59;18.30;99.90
51486;DHT22;37565;51.352;6.412;2022-11-12T14:35:33;18.30;99.90
51486;DHT22;37565;51.352;6.412;2022-11-12T14:38:08;18.30;99.90
51486;DHT22;37565;51.352;6.412;2022-11-12T14:40:42;18.30;99.90
51486;DHT22;37565;51.352;6.412;2022-11-12T14:43:21;18.30;99.90
51486;DHT22;37565;51.352;6.412;2022-11-12T14:45:57;18.30;99.90
51486;DHT22;37565;51.352;6.412;2022-11-12T14:48:25;18.30;99.90
51486;DHT22;37565;51.352;6.412;2022-11-12T14:50:58;18.30;99.90
51486;DHT22;37565;51.352;6.412;2022-11-12T14:53:31;18.30;99.90
51486;DHT22;37565;51.352;6.412;2022-11-12T14:56:03;18.40;99.90
51486;DHT22;37565;51.352;6.412;2022-11-12T14:58:33;18.40;99.90
51486;DHT22;37565;51.352;6.412;2022-11-12T15:04:17;18.40;99.90
51486;DHT22;37565;51.352;6.412;2022-11-12T15:06:51;18.40;99.90
51486;DHT22;37565;51.352;6.412;2022-11-12T15:09:31;18.40;99.90
51486;DHT22;37565;51.352;6.412;2022-11-12T15:11:59;18.30;99.90
51486;DHT22;37565;51.352;6.412;2022-11-12T15:14:28;18.20;99.90
51486;DHT22;37565;51.352;6.412;2022-11-12T15:16:56;18.20;99.90
51486;DHT22;37565;51.352;6.412;2022-11-12T15:19:27;18.20;99.90
51486;DHT22;37565;51.352;6.412;2022-11-12T15:21:57;18.20;99.90
51486;DHT22;37565;51.352;6.412;2022-11-12T15:24:30;18.20;99.90
51486;DHT22;37565;51.352;6.412;2022-11-12T15:27:00;18.20;99.90
51486;DHT22;37565;51.352;6.412;2022-11-12T15:29:30;18.20;99.90
51486;DHT22;37565;51.352;6.412;2022-11-12T15:32:01;18.20;99.90
51486;DHT22;37565;51.352;6.412;2022-11-12T15:34:45;18.20;99.90
51486;DHT22;37565;51.352;6.412;2022-11-12T15:37:24;18.20;99.90
51486;DHT22;37565;51.352;6.412;2022-11-12T15:39:57;18.20;99.90
51486;DHT22;37565;51.352;6.412;2022-11-12T15:42:29;18.20;99.90
51486;DHT22;37565;51.352;6.412;2022-11-12T15:44:59;18.20;99.90
51486;DHT22;37565;51.352;6.412;2022-11-12T15:47:28;18.20;99.90
51486;DHT22;37565;51.352;6.412;2022-11-12T15:49:57;18.20;99.90
51486;DHT22;37565;51.352;6.412;2022-11-12T15:52:26;18.20;99.90
51486;DHT22;37565;51.352;6.412;2022-11-12T15:54:54;18.20;99.90
51486;DHT22;37565;51.352;6.412;2022-11-12T15:57:23;18.20;99.90
51486;DHT22;37565;51.352;6.412;2022-11-12T15:59:56;18.20;99.90
51486;DHT22;37565;51.352;6.412;2022-11-12T16:02:33;18.10;99.90
51486;DHT22;37565;51.352;6.412;2022-11-12T16:05:03;18.20;99.90
51486;DHT22;37565;51.352;6.412;2022-11-12T16:07:32;18.10;99.90
51486;DHT22;37565;51.352;6.412;2022-11-12T16:09:59;18.10;99.90
51486;DHT22;37565;51.352;6.412;2022-11-12T16:12:28;18.20;99.90
51486;DHT22;37565;51.352;6.412;2022-11-12T16:14:56;18.20;99.90